Terminal Aerodrome Forecast
Issued by NWS

Home | Current Version | Previous Version | Text Only | Print | Product List | Glossary On
Versions: 1 2 3 4 5 6 7 8 9 10 11 12 13 14 15
000
FTUS46 KMTR 050531
TAFSNS
TAF
KSNS 050531Z 0506/0606 27010KT P6SM FEW012 SCT250
     FM050900 29004KT P6SM SCT007 BKN250
      TEMPO 0511/0515 BKN007
     FM051800 29016KT P6SM FEW020 SCT250
     FM060300 29009KT P6SM FEW010 SCT250=

USA.gov is the U.S. government's official web portal to all federal, state and local government web resources and services.